createdAt,value
2023-03-17T00:03:00.151Z,54.04
2023-03-17T00:08:19.266Z,54.26
2023-03-17T00:13:20.808Z,54.42
2023-03-17T00:18:23.486Z,54.44
2023-03-17T00:23:25.425Z,54.52
2023-03-17T00:28:27.786Z,54.40
2023-03-17T00:33:33.186Z,54.31
2023-03-17T00:38:34.984Z,54.21
2023-03-17T00:43:37.276Z,54.43
2023-03-17T00:48:38.760Z,54.46
2023-03-17T00:53:40.411Z,54.42
2023-03-17T00:58:42.804Z,54.24
2023-03-17T01:03:44.622Z,54.63
2023-03-17T01:08:46.572Z,54.58
2023-03-17T01:13:48.489Z,54.52
2023-03-17T01:18:49.876Z,54.77
2023-03-17T01:23:53.471Z,54.68
2023-03-17T01:28:54.906Z,54.49
2023-03-17T01:33:56.270Z,54.39
2023-03-17T01:38:58.566Z,54.55
2023-03-17T01:44:00.041Z,54.65
2023-03-17T01:49:14.458Z,54.82
2023-03-17T01:54:38.275Z,54.84
2023-03-17T01:59:46.446Z,55.00
2023-03-17T02:04:51.997Z,55.24
2023-03-17T02:09:56.044Z,55.41
2023-03-17T02:14:58.442Z,55.59
2023-03-17T02:20:18.452Z,55.50
2023-03-17T02:25:21.398Z,55.54
2023-03-17T02:30:24.054Z,55.05
2023-03-17T02:35:25.488Z,55.34
2023-03-17T02:40:27.338Z,55.33
2023-03-17T02:50:44.372Z,55.33
2023-03-17T02:55:45.724Z,55.52
2023-03-17T03:00:47.693Z,55.57
2023-03-17T03:05:49.162Z,55.68
2023-03-17T03:10:50.471Z,55.80
2023-03-17T03:15:51.903Z,56.35
2023-03-17T03:20:53.394Z,56.28
2023-03-17T03:25:54.905Z,56.61
2023-03-17T03:30:56.430Z,56.38
2023-03-17T03:35:58.035Z,56.77
2023-03-17T03:40:59.510Z,56.41
2023-03-17T03:46:00.937Z,56.33
2023-03-17T03:51:02.998Z,56.69
2023-03-17T03:56:04.684Z,56.74
2023-03-17T04:01:07.396Z,56.93
2023-03-17T04:06:08.790Z,56.73
2023-03-17T04:11:10.344Z,56.86
2023-03-17T04:16:12.203Z,57.58
2023-03-17T04:21:13.856Z,57.10
2023-03-17T04:26:17.246Z,57.47
2023-03-17T04:31:18.617Z,57.56
2023-03-17T04:36:22.078Z,57.67
2023-03-17T04:41:23.495Z,57.76
2023-03-17T04:46:24.887Z,58.15
2023-03-17T04:51:27.079Z,58.17
2023-03-17T04:56:31.210Z,58.10
2023-03-17T05:01:33.220Z,58.40
2023-03-17T05:06:34.729Z,58.39
2023-03-17T05:11:36.284Z,58.24
2023-03-17T05:16:37.642Z,58.19
2023-03-17T05:21:39.059Z,58.36
2023-03-17T05:26:40.668Z,58.28
2023-03-17T05:31:42.344Z,58.53
2023-03-17T05:36:44.523Z,58.94
2023-03-17T05:41:45.860Z,58.91
2023-03-17T05:46:47.540Z,58.88
2023-03-17T05:51:48.889Z,58.90
2023-03-17T05:56:50.725Z,59.10
2023-03-17T06:01:52.176Z,59.19
2023-03-17T06:06:53.680Z,59.24
2023-03-17T06:11:55.675Z,59.24
2023-03-17T06:16:57.054Z,58.86
2023-03-17T06:21:58.434Z,58.90
2023-03-17T06:26:59.828Z,58.53
2023-03-17T06:32:17.058Z,58.00
2023-03-17T06:37:21.399Z,57.15
2023-03-17T06:42:22.814Z,57.13
2023-03-17T06:47:26.013Z,57.30
2023-03-17T06:52:27.630Z,56.31
2023-03-17T06:57:29.050Z,55.91
2023-03-17T07:02:31.047Z,55.77
2023-03-17T07:07:32.790Z,55.48
2023-03-17T07:12:34.282Z,55.00
2023-03-17T07:17:35.645Z,55.02
2023-03-17T07:22:37.001Z,53.75
2023-03-17T07:27:38.787Z,53.90
2023-03-17T07:32:40.354Z,53.23
2023-03-17T07:37:42.749Z,53.29
2023-03-17T07:42:45.368Z,52.93
2023-03-17T07:47:46.716Z,53.13
2023-03-17T07:52:49.234Z,52.75
2023-03-17T07:57:50.771Z,52.03
2023-03-17T08:03:06.939Z,51.53
2023-03-17T08:08:12.578Z,51.34
2023-03-17T08:13:14.304Z,49.96
2023-03-17T08:18:16.262Z,49.79
2023-03-17T08:23:19.046Z,49.01
2023-03-17T08:28:20.482Z,48.83
2023-03-17T08:33:24.501Z,48.19
2023-03-17T08:38:26.046Z,46.42
2023-03-17T08:43:28.669Z,46.58
2023-03-17T08:48:30.832Z,46.52
2023-03-17T08:53:34.828Z,44.95
2023-03-17T08:58:39.811Z,45.52
2023-03-17T09:03:42.666Z,44.56
2023-03-17T09:08:47.217Z,42.42
2023-03-17T09:13:49.274Z,42.98
2023-03-17T09:18:52.199Z,42.45
2023-03-17T09:23:53.644Z,41.26
2023-03-17T09:28:55.432Z,41.43
2023-03-17T09:33:56.850Z,41.11
2023-03-17T09:38:58.672Z,40.79
2023-03-17T09:44:25.098Z,40.43
2023-03-17T09:49:42.390Z,40.28
2023-03-17T09:54:46.628Z,39.67
2023-03-17T09:59:53.514Z,40.30
2023-03-17T10:04:55.137Z,39.50
2023-03-17T10:10:03.098Z,40.28
2023-03-17T10:15:13.452Z,39.43
2023-03-17T10:20:26.049Z,38.81
2023-03-17T10:25:33.828Z,38.56
2023-03-17T10:30:35.489Z,38.55
2023-03-17T10:35:39.394Z,38.65
2023-03-17T10:40:41.633Z,38.16
2023-03-17T10:46:08.189Z,37.06
2023-03-17T10:51:10.521Z,35.54
2023-03-17T10:56:23.046Z,34.83
2023-03-17T11:01:29.584Z,34.55
2023-03-17T11:06:37.109Z,34.12
2023-03-17T11:11:50.501Z,33.56
2023-03-17T11:16:54.581Z,33.66
2023-03-17T11:22:09.998Z,32.74
2023-03-17T11:27:15.656Z,31.11
2023-03-17T11:32:42.003Z,27.82
2023-03-17T11:37:55.940Z,27.04
2023-03-17T11:43:35.242Z,28.59
2023-03-17T11:48:40.562Z,29.42
2023-03-17T11:53:57.272Z,30.51
2023-03-17T11:59:28.643Z,30.29
2023-03-17T12:04:53.294Z,30.66
2023-03-17T12:10:04.687Z,29.82
2023-03-17T12:15:16.840Z,30.33
2023-03-17T12:20:26.129Z,31.33
2023-03-17T12:25:44.971Z,32.89
2023-03-17T12:30:55.956Z,32.09
2023-03-17T12:35:59.472Z,33.41
2023-03-17T12:41:38.724Z,34.02
2023-03-17T12:47:00.546Z,34.38
2023-03-17T12:52:10.178Z,35.19
2023-03-17T12:57:22.007Z,35.69
2023-03-17T13:02:29.448Z,35.81
2023-03-17T13:07:36.768Z,35.80
2023-03-17T13:12:44.433Z,36.15
2023-03-17T13:17:46.073Z,36.94
2023-03-17T13:23:14.240Z,36.74
2023-03-17T13:28:23.707Z,36.82
2023-03-17T13:33:31.821Z,36.41
2023-03-17T13:39:17.902Z,36.39
2023-03-17T13:44:26.566Z,35.55
2023-03-17T13:49:30.302Z,35.54
2023-03-17T13:54:35.109Z,36.57
2023-03-17T13:59:56.892Z,36.89
2023-03-17T14:05:02.746Z,37.36
2023-03-17T14:10:06.173Z,37.42
2023-03-17T14:15:24.272Z,37.23
2023-03-17T14:20:27.547Z,37.46
2023-03-17T14:25:35.537Z,36.92
2023-03-17T14:30:37.092Z,37.29
2023-03-17T14:35:42.196Z,36.70
2023-03-17T14:40:43.701Z,37.61
2023-03-17T14:46:08.141Z,37.60
2023-03-17T14:51:23.500Z,37.49
2023-03-17T14:56:31.870Z,37.30
2023-03-17T15:01:41.591Z,38.18
2023-03-17T15:06:51.972Z,38.62
2023-03-17T15:12:02.772Z,39.12
2023-03-17T15:17:06.499Z,39.30
2023-03-17T15:22:35.980Z,39.72
2023-03-17T15:27:37.394Z,39.86
2023-03-17T15:32:39.133Z,40.18
2023-03-17T15:37:42.916Z,39.97
2023-03-17T15:42:45.560Z,40.71
2023-03-17T15:47:47.340Z,40.60
2023-03-17T15:52:48.805Z,40.90
2023-03-17T15:57:55.110Z,41.08
2023-03-17T16:02:59.909Z,41.12
2023-03-17T16:08:01.607Z,41.29
2023-03-17T16:13:02.955Z,41.46
2023-03-17T16:18:08.233Z,41.93
2023-03-17T16:23:18.480Z,41.92
2023-03-17T16:28:26.871Z,42.88
2023-03-17T16:33:35.930Z,43.44
2023-03-17T16:38:37.276Z,44.11
2023-03-17T16:43:43.859Z,44.05
2023-03-17T16:48:45.292Z,43.87
2023-03-17T16:53:46.799Z,44.23
2023-03-17T16:58:49.427Z,44.50
2023-03-17T17:03:51.124Z,44.15
2023-03-17T17:08:52.660Z,43.77
2023-03-17T17:13:54.116Z,43.87
2023-03-17T17:18:56.359Z,44.29
2023-03-17T17:23:58.608Z,44.33
2023-03-17T17:29:00.022Z,44.65
2023-03-17T17:34:01.522Z,44.93
2023-03-17T17:39:03.415Z,45.06
2023-03-17T17:44:05.716Z,45.43
2023-03-17T17:49:07.154Z,45.51
2023-03-17T17:54:08.752Z,46.45
2023-03-17T17:59:10.619Z,46.24
2023-03-17T18:04:12.749Z,45.82
2023-03-17T18:09:14.566Z,46.69
2023-03-17T18:14:16.033Z,46.61
2023-03-17T18:19:17.721Z,47.20
2023-03-17T18:24:19.402Z,47.12
2023-03-17T18:29:21.109Z,47.75
2023-03-17T18:34:26.992Z,47.18
2023-03-17T18:39:28.556Z,47.48
2023-03-17T18:44:30.010Z,47.42
2023-03-17T18:49:31.443Z,48.00
2023-03-17T18:54:33.002Z,48.06
2023-03-17T18:59:34.630Z,48.94
2023-03-17T19:04:36.270Z,49.22
2023-03-17T19:09:37.933Z,48.82
2023-03-17T19:14:40.292Z,49.52
2023-03-17T19:19:41.749Z,49.89
2023-03-17T19:24:43.332Z,49.87
2023-03-17T19:29:44.854Z,50.45
2023-03-17T19:34:47.676Z,50.46
2023-03-17T19:39:49.323Z,50.74
2023-03-17T19:44:51.445Z,50.59
2023-03-17T19:49:53.682Z,50.92
2023-03-17T19:54:56.294Z,50.42
2023-03-17T19:59:58.011Z,50.66
2023-03-17T20:04:59.671Z,50.44
2023-03-17T20:10:01.388Z,50.69
2023-03-17T20:15:03.854Z,50.82
2023-03-17T20:20:07.257Z,50.76
2023-03-17T20:25:10.283Z,50.37
2023-03-17T20:30:12.283Z,50.88
2023-03-17T20:35:13.811Z,51.18
2023-03-17T20:40:15.140Z,51.10
2023-03-17T20:45:16.590Z,51.28
2023-03-17T20:50:17.953Z,51.72
2023-03-17T20:55:20.137Z,52.29
2023-03-17T21:00:21.960Z,52.01
2023-03-17T21:05:26.495Z,52.11
2023-03-17T21:10:28.676Z,52.74
2023-03-17T21:15:30.597Z,52.08
2023-03-17T21:20:32.235Z,52.44
2023-03-17T21:25:36.148Z,52.98
2023-03-17T21:30:37.793Z,52.83
2023-03-17T21:35:39.308Z,53.40
2023-03-17T21:40:41.160Z,53.71
2023-03-17T21:45:42.589Z,53.79
2023-03-17T21:50:44.264Z,54.20
2023-03-17T21:55:45.875Z,54.30
2023-03-17T22:00:47.786Z,54.48
2023-03-17T22:05:50.722Z,54.78
2023-03-17T22:10:52.338Z,54.38
2023-03-17T22:15:53.927Z,54.56
2023-03-17T22:20:56.229Z,54.73
2023-03-17T22:25:57.643Z,54.98
2023-03-17T22:30:59.053Z,55.33
2023-03-17T22:36:00.593Z,55.42
2023-03-17T22:41:04.844Z,55.34
2023-03-17T22:46:06.246Z,55.66
2023-03-17T22:51:10.633Z,55.54
2023-03-17T22:56:12.559Z,55.61
2023-03-17T23:01:16.385Z,55.69
2023-03-17T23:06:18.182Z,55.87
2023-03-17T23:11:23.070Z,55.94
2023-03-17T23:16:24.718Z,56.25
2023-03-17T23:21:29.545Z,56.06
2023-03-17T23:26:32.003Z,56.16
2023-03-17T23:31:34.076Z,56.19
2023-03-17T23:36:39.856Z,56.30
2023-03-17T23:41:41.736Z,56.28
2023-03-17T23:46:44.913Z,56.27
2023-03-17T23:51:46.979Z,56.19
2023-03-17T23:56:48.614Z,55.80
